Hewlett Harbor, New York
Current Conditions -  °F | °C
As of 2:51 PM on Monday 22 Dec 2014 (Local Time) from KJFK Reporting Station
Light Rain Light Rain  
Wind Chill:   Ceiling: 1900
Heat Index:   Visibility: 10mi
Dew Point:   Wind: 13mph
Humidity: 74%   Direction: 100°E
Pressure: 30.24"   Gusts: NA
Location:  40.637°N, 73.6912°W
Report Text: KJFK 221951Z 10011KT 10SM -RA FEW010 OVC019 08/04 A3024 RMK AO2 RAB30 SLP239 P0000 T00830039 $
Loading
Personal Weather Stations






























Interactive Weather Map New forecast layout! Learn more

10-Day Weather Forecast

Advertisements
Track Severe Weather on mobile